createdAt,value
2022-09-28T00:00:53.085Z,0.38
2022-09-28T00:03:33.168Z,1.07
2022-09-28T00:06:24.046Z,0.10
2022-09-28T00:09:05.173Z,0.00
2022-09-28T00:11:53.061Z,0.65
2022-09-28T00:14:33.203Z,0.80
2022-09-28T00:17:21.089Z,8.00
2022-09-28T00:20:05.298Z,6.57
2022-09-28T00:22:52.065Z,1.00
2022-09-28T00:25:39.025Z,0.82
2022-09-28T00:28:26.152Z,1.08
2022-09-28T00:31:07.065Z,0.40
2022-09-28T00:33:51.929Z,0.00
2022-09-28T00:36:40.056Z,1.75
2022-09-28T00:39:27.036Z,0.52
2022-09-28T00:42:07.166Z,1.45
2022-09-28T00:44:58.017Z,1.45
2022-09-28T00:47:56.006Z,1.35
2022-09-28T00:50:38.679Z,0.63
2022-09-28T00:53:32.045Z,0.95
2022-09-28T00:56:19.054Z,0.40
2022-09-28T00:59:06.992Z,0.43
2022-09-28T01:01:53.989Z,0.73
2022-09-28T01:04:42.027Z,0.65
2022-09-28T01:07:22.900Z,1.00
2022-09-28T01:10:10.018Z,2.50
2022-09-28T01:12:56.966Z,1.23
2022-09-28T01:15:49.985Z,0.32
2022-09-28T01:19:08.083Z,1.17
2022-09-28T01:22:43.005Z,1.23
2022-09-28T01:25:35.963Z,1.17
2022-09-28T01:28:32.988Z,1.67
2022-09-28T01:31:22.987Z,0.98
2022-09-28T01:34:31.042Z,2.00
2022-09-28T01:37:21.954Z,1.35
2022-09-28T01:40:05.103Z,1.08
2022-09-28T01:42:54.972Z,0.57
2022-09-28T01:45:47.979Z,1.38
2022-09-28T01:48:46.958Z,1.17
2022-09-28T01:51:57.937Z,1.23
2022-09-28T01:55:09.479Z,1.35
2022-09-28T01:58:01.912Z,0.57
2022-09-28T02:00:47.079Z,0.60
2022-09-28T02:03:42.941Z,0.43
2022-09-28T02:06:31.994Z,1.45
2022-09-28T02:09:29.465Z,0.40
2022-09-28T02:12:31.904Z,0.15
2022-09-28T02:15:23.989Z,0.45
2022-09-28T02:18:12.951Z,2.15
2022-09-28T02:21:05.983Z,0.30
2022-09-28T02:24:07.916Z,0.47
2022-09-28T02:27:03.919Z,0.90
2022-09-28T02:29:50.921Z,0.30
2022-09-28T02:32:32.988Z,0.52
2022-09-28T02:35:22.926Z,0.00
2022-09-28T02:38:04.053Z,0.52
2022-09-28T02:41:02.944Z,0.22
2022-09-28T02:44:16.950Z,0.38
2022-09-28T02:47:20.862Z,0.68
2022-09-28T02:50:08.884Z,0.82
2022-09-28T02:53:04.859Z,0.75
2022-09-28T02:56:03.875Z,0.15
2022-09-28T02:58:48.026Z,1.35
2022-09-28T03:02:02.947Z,1.35
2022-09-28T03:04:57.857Z,0.60
2022-09-28T03:26:01.795Z,1.15
2022-09-28T03:28:42.295Z,1.63
2022-09-28T03:31:34.834Z,1.75
2022-09-28T03:34:21.799Z,0.98
2022-09-28T03:37:08.841Z,0.40
2022-09-28T03:39:55.804Z,0.55
2022-09-28T03:42:37.811Z,0.85
2022-09-28T03:45:24.871Z,0.52
2022-09-28T03:48:04.982Z,0.75
2022-09-28T03:50:51.785Z,0.32
2022-09-28T03:53:39.810Z,0.52
2022-09-28T03:56:20.224Z,0.47
2022-09-28T03:59:06.812Z,1.20
2022-09-28T04:01:56.796Z,2.17
2022-09-28T04:04:37.883Z,0.82
2022-09-28T04:07:28.975Z,0.50
2022-09-28T04:10:10.999Z,0.32
2022-09-28T04:13:01.766Z,0.73
2022-09-28T04:15:41.960Z,1.35
2022-09-28T04:18:29.772Z,2.58
2022-09-28T04:21:28.856Z,2.10
2022-09-28T04:24:24.751Z,0.75
2022-09-28T04:27:23.820Z,1.38
2022-09-28T04:30:10.750Z,0.35
2022-09-28T04:32:54.846Z,1.80
2022-09-28T04:35:43.775Z,0.03
2022-09-28T04:38:48.369Z,1.48
2022-09-28T04:41:30.745Z,0.65
2022-09-28T04:44:17.688Z,1.88
2022-09-28T04:47:10.713Z,0.22
2022-09-28T04:50:25.717Z,2.13
2022-09-28T04:53:34.727Z,1.40
2022-09-28T04:56:18.833Z,2.58
2022-09-28T04:59:05.716Z,2.90
2022-09-28T05:01:47.600Z,3.45
2022-09-28T05:04:34.696Z,1.58
2022-09-28T05:07:49.737Z,3.00
2022-09-28T05:10:30.052Z,4.90
2022-09-28T05:13:16.735Z,3.97
2022-09-28T05:16:05.854Z,4.82
2022-09-28T05:19:03.708Z,3.88
2022-09-28T05:21:48.827Z,2.50
2022-09-28T05:24:35.692Z,1.13
2022-09-28T05:27:22.685Z,1.92
2022-09-28T05:30:12.701Z,2.28
2022-09-28T05:33:28.677Z,0.77
2022-09-28T05:36:20.105Z,1.50
2022-09-28T05:39:06.689Z,0.45
2022-09-28T05:41:47.043Z,1.42
2022-09-28T05:44:34.858Z,8.48
2022-09-28T05:47:15.040Z,9.70
2022-09-28T05:50:01.679Z,9.70
2022-09-28T05:52:43.345Z,8.80
2022-09-28T05:55:29.651Z,9.48
2022-09-28T05:58:10.081Z,8.55
2022-09-28T06:00:57.700Z,9.35
2022-09-28T06:03:38.057Z,9.48
2022-09-28T06:06:24.683Z,10.20
2022-09-28T06:09:05.056Z,9.90
2022-09-28T06:12:12.840Z,9.73
2022-09-28T06:15:07.638Z,8.27
2022-09-28T06:17:54.632Z,7.40
2022-09-28T06:21:07.663Z,8.10
2022-09-28T06:23:50.733Z,8.30
2022-09-28T06:26:37.640Z,8.02
2022-09-28T06:29:19.762Z,8.68
2022-09-28T06:32:06.658Z,8.90
2022-09-28T06:34:50.732Z,10.02
2022-09-28T06:37:40.637Z,8.90
2022-09-28T06:40:20.888Z,7.57
2022-09-28T06:43:21.600Z,7.72
2022-09-28T06:46:21.344Z,7.72
2022-09-28T06:49:26.657Z,6.07
2022-09-28T06:52:31.610Z,5.03
2022-09-28T06:55:19.459Z,3.72
2022-09-28T06:58:14.611Z,3.45
2022-09-28T07:01:00.488Z,3.55
2022-09-28T07:03:55.945Z,3.35
2022-09-28T07:06:54.394Z,3.58
2022-09-28T07:10:07.595Z,4.05
2022-09-28T07:13:11.969Z,3.35
2022-09-28T07:16:08.636Z,2.35
2022-09-28T07:18:55.580Z,4.35
2022-09-28T07:21:36.776Z,3.42
2022-09-28T07:24:23.809Z,2.78
2022-09-28T07:27:28.767Z,2.53
2022-09-28T07:30:27.942Z,4.63
2022-09-28T07:33:30.343Z,3.00
2022-09-28T07:36:29.781Z,3.03
2022-09-28T07:39:09.662Z,3.65
2022-09-28T07:41:59.701Z,3.50
2022-09-28T07:44:50.562Z,3.53
2022-09-28T07:47:38.507Z,3.30
2022-09-28T07:50:26.673Z,3.78
2022-09-28T07:53:29.540Z,4.13
2022-09-28T07:56:38.681Z,3.38
2022-09-28T07:59:50.537Z,3.22
2022-09-28T08:02:48.666Z,4.57
2022-09-28T08:05:42.536Z,3.97
2022-09-28T08:08:29.541Z,3.60
2022-09-28T08:11:13.532Z,2.75
2022-09-28T08:14:18.654Z,2.42
2022-09-28T08:17:07.261Z,2.90
2022-09-28T08:20:21.795Z,3.20
2022-09-28T08:23:13.537Z,2.55
2022-09-28T08:26:00.620Z,4.25
2022-09-28T08:28:42.536Z,2.53
2022-09-28T08:32:01.364Z,3.05
2022-09-28T08:34:53.551Z,5.38
2022-09-28T08:37:58.127Z,1.50
2022-09-28T08:41:26.508Z,1.63
2022-09-28T08:44:30.580Z,1.40
2022-09-28T08:48:15.972Z,1.63
2022-09-28T08:51:29.501Z,1.60
2022-09-28T08:54:58.592Z,2.10
2022-09-28T08:57:54.522Z,2.67
2022-09-28T09:00:44.608Z,1.90
2022-09-28T09:03:46.464Z,2.17
2022-09-28T09:10:22.476Z,3.30
2022-09-28T09:13:06.554Z,2.25
2022-09-28T09:16:30.566Z,2.40
2022-09-28T09:19:49.601Z,2.33
2022-09-28T09:23:12.457Z,2.10
2022-09-28T09:26:13.643Z,2.40
2022-09-28T09:29:22.315Z,2.08
2022-09-28T09:32:33.444Z,1.45
2022-09-28T09:35:26.889Z,1.88
2022-09-28T09:38:48.476Z,1.55
2022-09-28T09:42:43.461Z,2.03
2022-09-28T09:46:06.888Z,2.20
2022-09-28T09:49:41.479Z,2.28
2022-09-28T09:52:36.995Z,1.50
2022-09-28T09:55:34.540Z,1.50
2022-09-28T09:58:54.452Z,1.60
2022-09-28T10:01:48.508Z,1.70
2022-09-28T10:04:47.577Z,1.40
2022-09-28T10:07:54.452Z,1.63
2022-09-28T10:10:42.570Z,1.35
2022-09-28T10:13:31.447Z,1.17
2022-09-28T10:16:32.488Z,1.50
2022-09-28T10:19:28.456Z,1.10
2022-09-28T10:22:40.420Z,0.93
2022-09-28T10:25:38.420Z,1.25
2022-09-28T10:28:36.483Z,1.95
2022-09-28T10:31:49.449Z,0.80
2022-09-28T10:34:38.430Z,1.55
2022-09-28T10:37:24.563Z,1.33
2022-09-28T10:44:12.431Z,1.27
2022-09-28T10:47:16.416Z,1.27
2022-09-28T10:49:58.574Z,1.00
2022-09-28T10:52:52.446Z,1.45
2022-09-28T10:56:05.477Z,1.70
2022-09-28T11:01:54.391Z,0.98
2022-09-28T11:04:47.397Z,1.40
2022-09-28T11:07:33.371Z,1.73
2022-09-28T11:10:28.395Z,1.40
2022-09-28T11:13:18.486Z,1.38
2022-09-28T11:16:15.411Z,1.20
2022-09-28T11:18:55.502Z,1.60
2022-09-28T11:21:50.374Z,1.15
2022-09-28T11:24:39.463Z,1.25
2022-09-28T11:27:34.368Z,1.27
2022-09-28T11:30:29.536Z,1.70
2022-09-28T11:33:55.342Z,1.30
2022-09-28T11:37:38.353Z,1.42
2022-09-28T11:41:10.338Z,1.80
2022-09-28T11:44:33.366Z,2.35
2022-09-28T11:48:02.345Z,1.40
2022-09-28T11:50:53.434Z,0.98
2022-09-28T11:53:50.345Z,0.85
2022-09-28T11:56:52.354Z,1.00
2022-09-28T11:59:35.664Z,1.45
2022-09-28T12:02:26.386Z,1.77
2022-09-28T12:05:32.426Z,1.42
2022-09-28T12:08:25.326Z,8.18
2022-09-28T12:11:41.358Z,2.47
2022-09-28T12:14:36.575Z,1.75
2022-09-28T12:17:35.478Z,1.63
2022-09-28T12:20:31.339Z,1.58
2022-09-28T12:23:25.892Z,2.22
2022-09-28T12:26:27.289Z,1.63
2022-09-28T12:29:11.487Z,1.75
2022-09-28T12:32:05.302Z,1.88
2022-09-28T12:34:48.372Z,1.92
2022-09-28T12:38:00.323Z,2.23
2022-09-28T12:41:26.268Z,2.13
2022-09-28T12:44:36.312Z,2.65
2022-09-28T12:47:43.274Z,2.70
2022-09-28T12:50:39.066Z,3.30
2022-09-28T12:53:37.261Z,3.67
2022-09-28T12:56:50.290Z,4.13
2022-09-28T12:59:46.827Z,3.40
2022-09-28T13:02:45.301Z,3.35
2022-09-28T13:06:25.266Z,3.75
2022-09-28T13:09:17.232Z,3.20
2022-09-28T13:12:23.245Z,3.35
2022-09-28T13:15:41.344Z,3.55
2022-09-28T13:18:51.270Z,3.03
2022-09-28T13:22:01.270Z,3.17
2022-09-28T13:24:53.249Z,4.20
2022-09-28T13:27:47.277Z,3.75
2022-09-28T13:30:27.708Z,4.65
2022-09-28T13:33:17.209Z,4.43
2022-09-28T13:35:57.358Z,5.40
2022-09-28T13:38:54.193Z,6.55
2022-09-28T13:41:55.983Z,5.93
2022-09-28T13:45:13.207Z,7.07
2022-09-28T13:48:18.650Z,8.27
2022-09-28T13:51:29.214Z,7.78
2022-09-28T13:54:23.379Z,8.00
2022-09-28T13:57:53.196Z,7.75
2022-09-28T14:00:38.364Z,7.75
2022-09-28T14:03:49.183Z,7.57
2022-09-28T14:06:49.439Z,8.65
2022-09-28T14:09:56.189Z,7.45
2022-09-28T14:12:51.600Z,8.65
2022-09-28T14:15:44.227Z,6.60
2022-09-28T14:18:38.294Z,7.68
2022-09-28T14:22:02.183Z,6.93
2022-09-28T14:24:54.182Z,8.30
2022-09-28T14:27:37.794Z,7.35
2022-09-28T14:30:27.174Z,7.28
2022-09-28T14:33:19.379Z,6.40
2022-09-28T14:36:20.138Z,6.68
2022-09-28T14:39:19.432Z,6.00
2022-09-28T14:42:06.171Z,5.90
2022-09-28T14:45:05.394Z,5.07
2022-09-28T14:47:55.152Z,5.70
2022-09-28T14:50:42.114Z,5.95
2022-09-28T14:53:31.245Z,5.13
2022-09-28T14:56:21.114Z,6.40
2022-09-28T14:59:04.250Z,4.75
2022-09-28T15:02:15.159Z,6.28
2022-09-28T15:05:16.267Z,5.20
2022-09-28T15:08:04.140Z,5.78
2022-09-28T15:10:47.254Z,5.78
2022-09-28T15:27:56.740Z,5.75
2022-09-28T15:30:37.468Z,6.43
2022-09-28T15:34:12.751Z,5.28
2022-09-28T15:37:02.726Z,4.95
2022-09-28T15:39:42.828Z,4.88
2022-09-28T15:42:29.751Z,6.20
2022-09-28T15:45:18.710Z,5.68
2022-09-28T15:48:24.951Z,6.57
2022-09-28T15:51:21.722Z,6.07
2022-09-28T15:54:04.617Z,6.97
2022-09-28T15:57:11.716Z,6.03
2022-09-28T15:59:59.267Z,7.00
2022-09-28T16:02:52.726Z,7.30
2022-09-28T16:05:57.673Z,7.57
2022-09-28T16:08:44.705Z,7.55
2022-09-28T16:11:44.689Z,8.18
2022-09-28T16:14:27.798Z,8.45
2022-09-28T16:17:24.703Z,7.80
2022-09-28T16:20:07.763Z,7.68
2022-09-28T16:22:55.688Z,8.05
2022-09-28T16:25:43.691Z,7.40
2022-09-28T16:28:29.536Z,8.30
2022-09-28T16:31:26.689Z,8.13
2022-09-28T16:34:13.613Z,9.68
2022-09-28T16:37:02.657Z,9.00
2022-09-28T16:39:43.027Z,9.63
2022-09-28T16:42:29.658Z,9.05
2022-09-28T16:45:18.458Z,10.05
2022-09-28T16:48:08.669Z,11.43
2022-09-28T16:50:49.040Z,10.02
2022-09-28T16:53:53.650Z,9.85
2022-09-28T16:56:36.359Z,9.43
2022-09-28T16:59:23.614Z,10.07
2022-09-28T17:02:47.304Z,10.18
2022-09-28T17:05:27.713Z,10.90
2022-09-28T17:08:19.598Z,9.32
2022-09-28T17:11:18.151Z,10.20
2022-09-28T17:14:03.095Z,9.77
2022-09-28T17:17:07.367Z,10.35
2022-09-28T17:19:56.613Z,10.65
2022-09-28T17:22:43.633Z,10.48
2022-09-28T17:25:39.575Z,11.48
2022-09-28T17:28:38.615Z,10.50
2022-09-28T17:31:22.887Z,10.40
2022-09-28T17:34:09.622Z,9.00
2022-09-28T17:36:57.619Z,10.48
2022-09-28T17:39:37.977Z,10.00
2022-09-28T17:42:17.589Z,10.75
2022-09-28T17:45:04.597Z,10.63
2022-09-28T17:47:45.055Z,10.02
2022-09-28T17:50:33.607Z,10.20
2022-09-28T17:53:14.555Z,10.77
2022-09-28T17:56:01.578Z,10.43
2022-09-28T17:58:41.985Z,11.05
2022-09-28T18:01:28.617Z,10.75
2022-09-28T18:04:46.940Z,10.60
2022-09-28T18:07:18.658Z,10.93
2022-09-28T18:10:05.586Z,11.52
2022-09-28T18:12:45.721Z,12.95
2022-09-28T18:15:32.610Z,12.32
2022-09-28T18:18:19.552Z,10.30
2022-09-28T18:21:01.024Z,11.45
2022-09-28T18:23:51.556Z,12.15
2022-09-28T18:26:38.524Z,12.23
2022-09-28T18:29:18.666Z,11.05
2022-09-28T18:32:05.572Z,11.85
2022-09-28T18:34:45.805Z,11.48
2022-09-28T18:37:32.517Z,12.48
2022-09-28T18:40:14.718Z,10.90
2022-09-28T18:43:01.513Z,10.95
2022-09-28T18:45:42.620Z,10.98
2022-09-28T18:48:31.505Z,12.70
2022-09-28T18:51:15.662Z,11.60
2022-09-28T18:54:02.528Z,10.07
2022-09-28T18:56:49.553Z,10.43
2022-09-28T18:59:36.715Z,12.85
2022-09-28T19:02:19.632Z,8.90
2022-09-28T19:04:59.884Z,9.05
2022-09-28T19:07:47.509Z,7.32
2022-09-28T19:10:27.978Z,7.93
2022-09-28T19:13:14.495Z,9.10
2022-09-28T19:16:01.536Z,9.15
2022-09-28T19:18:43.814Z,9.07
2022-09-28T19:21:31.475Z,7.75
2022-09-28T19:24:18.517Z,8.38
2022-09-28T19:27:05.658Z,7.57
2022-09-28T19:30:08.495Z,9.30
2022-09-28T19:32:52.754Z,10.20
2022-09-28T19:37:08.096Z,9.95
2022-09-28T19:40:26.312Z,10.73
2022-09-28T19:43:27.475Z,9.82
2022-09-28T19:46:16.507Z,9.05
2022-09-28T19:49:03.469Z,9.60
2022-09-28T19:52:01.926Z,10.02
2022-09-28T19:54:51.463Z,9.05
2022-09-28T19:57:32.690Z,9.57
2022-09-28T20:00:20.452Z,9.65
2022-09-28T20:03:00.961Z,8.93
2022-09-28T20:05:48.455Z,9.25
2022-09-28T20:08:32.248Z,8.65
2022-09-28T20:11:19.470Z,9.93
2022-09-28T20:14:00.282Z,9.43
2022-09-28T20:16:49.534Z,9.07
2022-09-28T20:19:36.408Z,9.68
2022-09-28T20:22:25.502Z,8.63
2022-09-28T20:25:06.338Z,10.52
2022-09-28T20:27:53.405Z,10.02
2022-09-28T20:30:33.785Z,10.18
2022-09-28T20:33:28.700Z,11.13
2022-09-28T20:36:11.779Z,10.93
2022-09-28T20:39:01.389Z,9.15
2022-09-28T20:41:48.429Z,9.23
2022-09-28T20:44:28.527Z,8.95
2022-09-28T20:47:15.366Z,8.60
2022-09-28T20:50:02.408Z,8.55
2022-09-28T20:52:42.772Z,9.30
2022-09-28T20:55:29.375Z,9.10
2022-09-28T20:58:09.769Z,8.05
2022-09-28T21:00:56.337Z,8.35
2022-09-28T21:03:38.191Z,7.43
2022-09-28T21:06:25.356Z,6.32
2022-09-28T21:09:13.355Z,6.40
2022-09-28T21:11:53.473Z,7.80
2022-09-28T21:14:33.373Z,6.75
2022-09-28T21:17:13.774Z,7.35
2022-09-28T21:20:00.375Z,7.63
2022-09-28T21:22:40.734Z,9.60
2022-09-28T21:25:27.353Z,11.05
2022-09-28T21:28:21.374Z,15.52
2022-09-28T21:31:04.596Z,11.30
2022-09-28T21:33:51.357Z,8.63
2022-09-28T21:36:38.362Z,13.35
2022-09-28T21:39:25.349Z,14.48
2022-09-28T21:42:05.898Z,15.02
2022-09-28T21:44:55.291Z,14.10
2022-09-28T21:47:37.811Z,13.82
2022-09-28T21:50:24.312Z,10.45
2022-09-28T21:53:04.677Z,10.27
2022-09-28T21:55:52.331Z,10.30
2022-09-28T21:58:35.418Z,10.52
2022-09-28T22:01:49.377Z,9.15
2022-09-28T22:04:29.683Z,10.77
2022-09-28T22:07:16.319Z,10.52
2022-09-28T22:10:03.305Z,11.77
2022-09-28T22:12:43.490Z,12.38
2022-09-28T22:15:30.311Z,13.02
2022-09-28T22:18:17.319Z,11.05
2022-09-28T22:21:02.901Z,11.98
2022-09-28T22:23:50.300Z,11.57
2022-09-28T22:26:38.296Z,13.35
2022-09-28T22:29:18.375Z,15.55
2022-09-28T22:32:08.251Z,16.83
2022-09-28T22:34:48.386Z,12.77
2022-09-28T22:37:35.278Z,12.45
2022-09-28T22:40:16.638Z,15.07
2022-09-28T22:43:03.269Z,13.43
2022-09-28T22:45:50.302Z,11.73
2022-09-28T22:48:37.275Z,12.98
2022-09-28T22:51:17.379Z,11.02
2022-09-28T22:54:04.296Z,12.40
2022-09-28T22:56:44.349Z,12.40
2022-09-28T22:59:31.282Z,11.85
2022-09-28T23:02:11.356Z,13.25
2022-09-28T23:05:05.280Z,13.32
2022-09-28T23:07:53.504Z,13.32
2022-09-28T23:10:40.231Z,12.85
2022-09-28T23:13:21.324Z,14.07
2022-09-28T23:16:11.240Z,13.73
2022-09-28T23:18:58.251Z,12.88
2022-09-28T23:21:38.576Z,13.02
2022-09-28T23:24:25.272Z,12.40
2022-09-28T23:27:19.204Z,12.60
2022-09-28T23:30:06.180Z,12.95
2022-09-28T23:32:46.578Z,12.77
2022-09-28T23:35:33.172Z,13.07
2022-09-28T23:38:18.004Z,14.00
2022-09-28T23:41:05.212Z,12.77
2022-09-28T23:43:45.276Z,12.90
2022-09-28T23:46:32.261Z,14.10
2022-09-28T23:49:12.555Z,12.43
2022-09-28T23:51:59.198Z,12.38
2022-09-28T23:54:39.813Z,11.90
2022-09-28T23:57:26.216Z,13.20
